sensor_id;sensor_type;location;lat;lon;timestamp;P1;durP1;ratioP1;P2;durP2;ratioP2
8665;SDS011;4370;48.916;8.380;2023-05-20T00:02:16;3.07;;;2.70;;
8665;SDS011;4370;48.916;8.380;2023-05-20T00:04:42;4.60;;;3.10;;
8665;SDS011;4370;48.916;8.380;2023-05-20T00:07:08;4.00;;;3.07;;
8665;SDS011;4370;48.916;8.380;2023-05-20T00:09:34;3.43;;;2.80;;
8665;SDS011;4370;48.916;8.380;2023-05-20T00:12:00;3.33;;;2.60;;
8665;SDS011;4370;48.916;8.380;2023-05-20T00:14:26;4.10;;;3.07;;
8665;SDS011;4370;48.916;8.380;2023-05-20T00:16:52;4.33;;;2.90;;
8665;SDS011;4370;48.916;8.380;2023-05-20T00:19:18;4.93;;;2.90;;
8665;SDS011;4370;48.916;8.380;2023-05-20T00:21:44;5.03;;;2.90;;
8665;SDS011;4370;48.916;8.380;2023-05-20T00:24:10;4.40;;;3.10;;
8665;SDS011;4370;48.916;8.380;2023-05-20T00:26:35;4.33;;;3.37;;
8665;SDS011;4370;48.916;8.380;2023-05-20T00:29:01;5.87;;;3.07;;
8665;SDS011;4370;48.916;8.380;2023-05-20T00:31:27;4.10;;;3.33;;
8665;SDS011;4370;48.916;8.380;2023-05-20T00:33:53;4.73;;;3.17;;
8665;SDS011;4370;48.916;8.380;2023-05-20T00:36:18;6.40;;;3.40;;
8665;SDS011;4370;48.916;8.380;2023-05-20T00:38:45;5.70;;;3.50;;
8665;SDS011;4370;48.916;8.380;2023-05-20T00:41:11;4.93;;;3.73;;
8665;SDS011;4370;48.916;8.380;2023-05-20T00:43:37;5.23;;;3.90;;
8665;SDS011;4370;48.916;8.380;2023-05-20T00:46:03;5.77;;;4.20;;
8665;SDS011;4370;48.916;8.380;2023-05-20T00:48:30;5.07;;;3.73;;
8665;SDS011;4370;48.916;8.380;2023-05-20T00:51:05;7.80;;;4.23;;
8665;SDS011;4370;48.916;8.380;2023-05-20T00:53:32;4.90;;;3.87;;
8665;SDS011;4370;48.916;8.380;2023-05-20T00:56:00;6.37;;;4.07;;
8665;SDS011;4370;48.916;8.380;2023-05-20T00:58:26;4.83;;;3.73;;
8665;SDS011;4370;48.916;8.380;2023-05-20T01:00:52;5.07;;;4.17;;
8665;SDS011;4370;48.916;8.380;2023-05-20T01:03:18;6.53;;;4.70;;
8665;SDS011;4370;48.916;8.380;2023-05-20T01:05:44;7.17;;;4.37;;
8665;SDS011;4370;48.916;8.380;2023-05-20T01:08:10;4.47;;;3.50;;
8665;SDS011;4370;48.916;8.380;2023-05-20T01:10:38;5.17;;;4.00;;
8665;SDS011;4370;48.916;8.380;2023-05-20T01:13:07;8.80;;;4.40;;
8665;SDS011;4370;48.916;8.380;2023-05-20T01:15:35;4.33;;;3.93;;
8665;SDS011;4370;48.916;8.380;2023-05-20T01:18:06;6.37;;;4.07;;
8665;SDS011;4370;48.916;8.380;2023-05-20T01:20:34;6.47;;;4.00;;
8665;SDS011;4370;48.916;8.380;2023-05-20T01:23:01;4.57;;;3.67;;
8665;SDS011;4370;48.916;8.380;2023-05-20T01:25:28;5.60;;;4.10;;
8665;SDS011;4370;48.916;8.380;2023-05-20T01:27:54;4.63;;;3.53;;
8665;SDS011;4370;48.916;8.380;2023-05-20T01:30:21;3.80;;;3.30;;
8665;SDS011;4370;48.916;8.380;2023-05-20T01:32:57;6.67;;;3.87;;
8665;SDS011;4370;48.916;8.380;2023-05-20T01:35:25;4.93;;;3.87;;
8665;SDS011;4370;48.916;8.380;2023-05-20T01:37:52;4.83;;;3.93;;
8665;SDS011;4370;48.916;8.380;2023-05-20T01:40:19;5.83;;;3.77;;
8665;SDS011;4370;48.916;8.380;2023-05-20T01:42:46;8.57;;;4.40;;
8665;SDS011;4370;48.916;8.380;2023-05-20T01:45:16;9.20;;;3.93;;
8665;SDS011;4370;48.916;8.380;2023-05-20T01:47:45;6.73;;;3.73;;
8665;SDS011;4370;48.916;8.380;2023-05-20T01:50:11;5.63;;;4.10;;
8665;SDS011;4370;48.916;8.380;2023-05-20T01:52:37;7.23;;;4.20;;
8665;SDS011;4370;48.916;8.380;2023-05-20T01:55:03;9.37;;;4.50;;
8665;SDS011;4370;48.916;8.380;2023-05-20T01:57:29;7.13;;;4.10;;
8665;SDS011;4370;48.916;8.380;2023-05-20T01:59:55;7.10;;;4.03;;
8665;SDS011;4370;48.916;8.380;2023-05-20T02:02:21;5.57;;;4.20;;
8665;SDS011;4370;48.916;8.380;2023-05-20T02:04:49;5.63;;;4.00;;
8665;SDS011;4370;48.916;8.380;2023-05-20T02:07:16;5.93;;;4.00;;
8665;SDS011;4370;48.916;8.380;2023-05-20T02:09:45;5.50;;;3.80;;
8665;SDS011;4370;48.916;8.380;2023-05-20T02:12:12;5.40;;;3.73;;
8665;SDS011;4370;48.916;8.380;2023-05-20T02:14:44;8.00;;;3.90;;
8665;SDS011;4370;48.916;8.380;2023-05-20T02:17:14;6.67;;;4.10;;
8665;SDS011;4370;48.916;8.380;2023-05-20T02:19:41;4.67;;;3.73;;
8665;SDS011;4370;48.916;8.380;2023-05-20T02:22:07;4.07;;;3.63;;
8665;SDS011;4370;48.916;8.380;2023-05-20T02:24:33;6.33;;;3.90;;
8665;SDS011;4370;48.916;8.380;2023-05-20T02:26:59;5.27;;;3.70;;
8665;SDS011;4370;48.916;8.380;2023-05-20T02:29:27;5.53;;;4.00;;
8665;SDS011;4370;48.916;8.380;2023-05-20T02:31:52;8.70;;;3.87;;
8665;SDS011;4370;48.916;8.380;2023-05-20T02:34:19;6.43;;;3.60;;
8665;SDS011;4370;48.916;8.380;2023-05-20T02:36:45;5.40;;;3.73;;
8665;SDS011;4370;48.916;8.380;2023-05-20T02:39:11;6.30;;;3.90;;
8665;SDS011;4370;48.916;8.380;2023-05-20T02:41:37;4.83;;;3.47;;
8665;SDS011;4370;48.916;8.380;2023-05-20T02:44:03;4.47;;;3.73;;
8665;SDS011;4370;48.916;8.380;2023-05-20T02:46:29;5.50;;;3.87;;
8665;SDS011;4370;48.916;8.380;2023-05-20T02:48:56;7.23;;;3.50;;
8665;SDS011;4370;48.916;8.380;2023-05-20T02:51:23;5.40;;;3.50;;
8665;SDS011;4370;48.916;8.380;2023-05-20T02:53:49;5.70;;;3.40;;
8665;SDS011;4370;48.916;8.380;2023-05-20T02:56:14;4.87;;;3.73;;
8665;SDS011;4370;48.916;8.380;2023-05-20T02:58:45;7.60;;;3.90;;
8665;SDS011;4370;48.916;8.380;2023-05-20T03:01:11;4.67;;;3.17;;
8665;SDS011;4370;48.916;8.380;2023-05-20T03:03:38;5.10;;;3.80;;
8665;SDS011;4370;48.916;8.380;2023-05-20T03:06:04;4.80;;;3.60;;
8665;SDS011;4370;48.916;8.380;2023-05-20T03:08:31;5.30;;;3.70;;
8665;SDS011;4370;48.916;8.380;2023-05-20T03:11:02;6.40;;;3.70;;
8665;SDS011;4370;48.916;8.380;2023-05-20T03:13:28;4.37;;;3.63;;
8665;SDS011;4370;48.916;8.380;2023-05-20T03:15:54;6.33;;;3.40;;
8665;SDS011;4370;48.916;8.380;2023-05-20T03:18:20;4.50;;;3.53;;
8665;SDS011;4370;48.916;8.380;2023-05-20T03:20:46;4.97;;;3.97;;
8665;SDS011;4370;48.916;8.380;2023-05-20T03:23:12;4.10;;;3.40;;
8665;SDS011;4370;48.916;8.380;2023-05-20T03:25:39;6.00;;;3.33;;
8665;SDS011;4370;48.916;8.380;2023-05-20T03:28:05;5.53;;;3.90;;
8665;SDS011;4370;48.916;8.380;2023-05-20T03:30:32;4.37;;;3.40;;
8665;SDS011;4370;48.916;8.380;2023-05-20T03:32:59;4.00;;;3.40;;
8665;SDS011;4370;48.916;8.380;2023-05-20T03:35:26;5.20;;;3.83;;
8665;SDS011;4370;48.916;8.380;2023-05-20T03:37:53;6.17;;;4.17;;
8665;SDS011;4370;48.916;8.380;2023-05-20T03:40:19;4.80;;;4.17;;
8665;SDS011;4370;48.916;8.380;2023-05-20T03:42:45;4.13;;;3.47;;
8665;SDS011;4370;48.916;8.380;2023-05-20T03:45:11;4.80;;;3.43;;
8665;SDS011;4370;48.916;8.380;2023-05-20T03:47:38;5.43;;;4.07;;
8665;SDS011;4370;48.916;8.380;2023-05-20T03:50:05;6.37;;;3.60;;
8665;SDS011;4370;48.916;8.380;2023-05-20T03:52:31;5.60;;;3.63;;
8665;SDS011;4370;48.916;8.380;2023-05-20T03:54:58;4.20;;;3.80;;
8665;SDS011;4370;48.916;8.380;2023-05-20T03:57:24;5.77;;;3.87;;
8665;SDS011;4370;48.916;8.380;2023-05-20T03:59:50;4.60;;;3.67;;
8665;SDS011;4370;48.916;8.380;2023-05-20T04:02:15;5.47;;;3.70;;
8665;SDS011;4370;48.916;8.380;2023-05-20T04:04:41;5.57;;;4.17;;
8665;SDS011;4370;48.916;8.380;2023-05-20T04:07:08;4.13;;;3.60;;
8665;SDS011;4370;48.916;8.380;2023-05-20T04:09:36;5.37;;;3.63;;
8665;SDS011;4370;48.916;8.380;2023-05-20T04:12:02;5.90;;;3.47;;
8665;SDS011;4370;48.916;8.380;2023-05-20T04:14:28;5.17;;;3.83;;
8665;SDS011;4370;48.916;8.380;2023-05-20T04:16:54;5.90;;;3.50;;
8665;SDS011;4370;48.916;8.380;2023-05-20T04:19:21;5.47;;;3.50;;
8665;SDS011;4370;48.916;8.380;2023-05-20T04:21:48;6.63;;;3.87;;
8665;SDS011;4370;48.916;8.380;2023-05-20T04:24:13;4.67;;;3.73;;
8665;SDS011;4370;48.916;8.380;2023-05-20T04:26:40;6.03;;;3.43;;
8665;SDS011;4370;48.916;8.380;2023-05-20T04:29:08;3.40;;;3.10;;
8665;SDS011;4370;48.916;8.380;2023-05-20T04:31:33;7.97;;;3.80;;
8665;SDS011;4370;48.916;8.380;2023-05-20T04:33:59;6.10;;;3.50;;
8665;SDS011;4370;48.916;8.380;2023-05-20T04:36:26;5.00;;;3.40;;
8665;SDS011;4370;48.916;8.380;2023-05-20T04:38:55;3.80;;;3.40;;
8665;SDS011;4370;48.916;8.380;2023-05-20T04:41:21;6.27;;;3.60;;
8665;SDS011;4370;48.916;8.380;2023-05-20T04:43:46;5.07;;;3.50;;
8665;SDS011;4370;48.916;8.380;2023-05-20T04:46:13;6.57;;;3.53;;
8665;SDS011;4370;48.916;8.380;2023-05-20T04:48:40;4.10;;;3.70;;
8665;SDS011;4370;48.916;8.380;2023-05-20T04:51:07;4.27;;;3.50;;
8665;SDS011;4370;48.916;8.380;2023-05-20T04:53:33;4.43;;;3.47;;
8665;SDS011;4370;48.916;8.380;2023-05-20T04:56:00;5.63;;;3.33;;
8665;SDS011;4370;48.916;8.380;2023-05-20T04:58:27;6.30;;;3.77;;
8665;SDS011;4370;48.916;8.380;2023-05-20T05:00:53;4.50;;;3.23;;
8665;SDS011;4370;48.916;8.380;2023-05-20T05:03:20;9.13;;;3.47;;
8665;SDS011;4370;48.916;8.380;2023-05-20T05:05:46;5.23;;;3.30;;
8665;SDS011;4370;48.916;8.380;2023-05-20T05:08:11;4.10;;;3.53;;
8665;SDS011;4370;48.916;8.380;2023-05-20T05:10:37;4.47;;;3.23;;
8665;SDS011;4370;48.916;8.380;2023-05-20T05:13:03;5.33;;;3.57;;
8665;SDS011;4370;48.916;8.380;2023-05-20T05:15:29;5.20;;;3.10;;
8665;SDS011;4370;48.916;8.380;2023-05-20T05:17:55;5.47;;;3.10;;
8665;SDS011;4370;48.916;8.380;2023-05-20T05:20:22;5.07;;;3.10;;
8665;SDS011;4370;48.916;8.380;2023-05-20T05:22:48;4.87;;;3.50;;
8665;SDS011;4370;48.916;8.380;2023-05-20T05:25:14;3.93;;;2.93;;
8665;SDS011;4370;48.916;8.380;2023-05-20T05:27:41;5.47;;;3.70;;
8665;SDS011;4370;48.916;8.380;2023-05-20T05:30:08;3.63;;;3.13;;
8665;SDS011;4370;48.916;8.380;2023-05-20T05:32:35;7.23;;;3.70;;
8665;SDS011;4370;48.916;8.380;2023-05-20T05:35:01;3.93;;;3.10;;
8665;SDS011;4370;48.916;8.380;2023-05-20T05:37:27;4.30;;;3.33;;
8665;SDS011;4370;48.916;8.380;2023-05-20T05:39:53;4.83;;;3.20;;
8665;SDS011;4370;48.916;8.380;2023-05-20T05:42:19;5.30;;;3.37;;
8665;SDS011;4370;48.916;8.380;2023-05-20T05:44:46;4.43;;;3.30;;
8665;SDS011;4370;48.916;8.380;2023-05-20T05:47:12;5.23;;;3.17;;
8665;SDS011;4370;48.916;8.380;2023-05-20T05:49:38;5.80;;;3.50;;
8665;SDS011;4370;48.916;8.380;2023-05-20T05:52:04;3.80;;;3.30;;
8665;SDS011;4370;48.916;8.380;2023-05-20T05:54:30;5.50;;;3.47;;
8665;SDS011;4370;48.916;8.380;2023-05-20T05:56:56;5.27;;;3.30;;
8665;SDS011;4370;48.916;8.380;2023-05-20T05:59:22;6.40;;;3.63;;
8665;SDS011;4370;48.916;8.380;2023-05-20T06:01:50;7.50;;;2.97;;
8665;SDS011;4370;48.916;8.380;2023-05-20T06:04:16;4.50;;;3.20;;
8665;SDS011;4370;48.916;8.380;2023-05-20T06:06:42;6.20;;;3.60;;
8665;SDS011;4370;48.916;8.380;2023-05-20T06:09:08;8.27;;;3.20;;
8665;SDS011;4370;48.916;8.380;2023-05-20T06:11:34;5.67;;;3.43;;
8665;SDS011;4370;48.916;8.380;2023-05-20T06:14:00;8.40;;;3.60;;
8665;SDS011;4370;48.916;8.380;2023-05-20T06:16:26;6.17;;;3.37;;
8665;SDS011;4370;48.916;8.380;2023-05-20T06:18:52;3.60;;;2.90;;
8665;SDS011;4370;48.916;8.380;2023-05-20T06:21:21;7.27;;;3.80;;
8665;SDS011;4370;48.916;8.380;2023-05-20T06:23:47;5.17;;;3.40;;
8665;SDS011;4370;48.916;8.380;2023-05-20T06:26:14;5.23;;;3.40;;
8665;SDS011;4370;48.916;8.380;2023-05-20T06:28:40;6.40;;;3.23;;
8665;SDS011;4370;48.916;8.380;2023-05-20T06:31:06;6.63;;;3.70;;
8665;SDS011;4370;48.916;8.380;2023-05-20T06:33:32;4.23;;;3.23;;
8665;SDS011;4370;48.916;8.380;2023-05-20T06:35:58;5.03;;;3.33;;
8665;SDS011;4370;48.916;8.380;2023-05-20T06:38:25;5.33;;;3.93;;
8665;SDS011;4370;48.916;8.380;2023-05-20T06:40:53;7.27;;;4.07;;
8665;SDS011;4370;48.916;8.380;2023-05-20T06:43:20;6.80;;;3.47;;
8665;SDS011;4370;48.916;8.380;2023-05-20T06:45:46;4.77;;;3.10;;
8665;SDS011;4370;48.916;8.380;2023-05-20T06:48:12;4.73;;;3.23;;
8665;SDS011;4370;48.916;8.380;2023-05-20T06:50:38;5.10;;;3.20;;
8665;SDS011;4370;48.916;8.380;2023-05-20T06:53:04;6.07;;;3.57;;
8665;SDS011;4370;48.916;8.380;2023-05-20T06:55:30;3.53;;;3.00;;
8665;SDS011;4370;48.916;8.380;2023-05-20T06:57:56;6.87;;;3.27;;
8665;SDS011;4370;48.916;8.380;2023-05-20T07:00:22;3.90;;;3.00;;
8665;SDS011;4370;48.916;8.380;2023-05-20T07:02:47;3.37;;;2.90;;
8665;SDS011;4370;48.916;8.380;2023-05-20T07:05:15;4.47;;;3.13;;
8665;SDS011;4370;48.916;8.380;2023-05-20T07:07:45;3.40;;;3.10;;
8665;SDS011;4370;48.916;8.380;2023-05-20T07:10:11;4.20;;;3.23;;
8665;SDS011;4370;48.916;8.380;2023-05-20T07:12:36;5.53;;;3.17;;
8665;SDS011;4370;48.916;8.380;2023-05-20T07:15:03;4.63;;;3.10;;
8665;SDS011;4370;48.916;8.380;2023-05-20T07:17:32;5.30;;;3.50;;
8665;SDS011;4370;48.916;8.380;2023-05-20T07:19:57;4.33;;;3.40;;
8665;SDS011;4370;48.916;8.380;2023-05-20T07:22:23;5.30;;;3.50;;
8665;SDS011;4370;48.916;8.380;2023-05-20T07:24:49;5.67;;;3.20;;
8665;SDS011;4370;48.916;8.380;2023-05-20T07:27:15;4.40;;;3.63;;
8665;SDS011;4370;48.916;8.380;2023-05-20T07:29:41;4.97;;;3.43;;
8665;SDS011;4370;48.916;8.380;2023-05-20T07:32:07;7.03;;;3.30;;
8665;SDS011;4370;48.916;8.380;2023-05-20T07:34:33;4.20;;;3.30;;
8665;SDS011;4370;48.916;8.380;2023-05-20T07:37:00;5.13;;;3.40;;
8665;SDS011;4370;48.916;8.380;2023-05-20T07:39:25;5.97;;;3.50;;
8665;SDS011;4370;48.916;8.380;2023-05-20T07:41:51;5.07;;;3.50;;
8665;SDS011;4370;48.916;8.380;2023-05-20T07:44:18;6.03;;;3.50;;
8665;SDS011;4370;48.916;8.380;2023-05-20T07:46:46;5.27;;;3.40;;
8665;SDS011;4370;48.916;8.380;2023-05-20T07:49:11;4.43;;;3.50;;
8665;SDS011;4370;48.916;8.380;2023-05-20T07:51:37;7.33;;;3.77;;
8665;SDS011;4370;48.916;8.380;2023-05-20T07:54:02;5.80;;;3.90;;
8665;SDS011;4370;48.916;8.380;2023-05-20T07:56:29;5.43;;;4.00;;
8665;SDS011;4370;48.916;8.380;2023-05-20T07:58:56;7.37;;;4.00;;
8665;SDS011;4370;48.916;8.380;2023-05-20T08:01:22;4.20;;;3.70;;
8665;SDS011;4370;48.916;8.380;2023-05-20T08:03:49;4.23;;;3.83;;
8665;SDS011;4370;48.916;8.380;2023-05-20T08:06:15;5.03;;;3.23;;
8665;SDS011;4370;48.916;8.380;2023-05-20T08:08:42;5.20;;;3.50;;
8665;SDS011;4370;48.916;8.380;2023-05-20T08:11:09;5.33;;;3.60;;
8665;SDS011;4370;48.916;8.380;2023-05-20T08:13:35;4.40;;;3.73;;
8665;SDS011;4370;48.916;8.380;2023-05-20T08:16:02;4.17;;;3.37;;
8665;SDS011;4370;48.916;8.380;2023-05-20T08:18:29;5.37;;;3.77;;
8665;SDS011;4370;48.916;8.380;2023-05-20T08:20:56;4.23;;;3.60;;
8665;SDS011;4370;48.916;8.380;2023-05-20T08:23:24;4.83;;;4.23;;
8665;SDS011;4370;48.916;8.380;2023-05-20T08:25:50;6.70;;;3.60;;
8665;SDS011;4370;48.916;8.380;2023-05-20T08:28:16;5.40;;;4.27;;
8665;SDS011;4370;48.916;8.380;2023-05-20T08:30:42;5.83;;;4.27;;
8665;SDS011;4370;48.916;8.380;2023-05-20T08:33:09;6.43;;;4.00;;
8665;SDS011;4370;48.916;8.380;2023-05-20T08:35:37;4.73;;;4.03;;
8665;SDS011;4370;48.916;8.380;2023-05-20T08:38:04;5.43;;;4.00;;
8665;SDS011;4370;48.916;8.380;2023-05-20T08:40:33;7.93;;;4.13;;
8665;SDS011;4370;48.916;8.380;2023-05-20T08:42:59;4.70;;;3.67;;
8665;SDS011;4370;48.916;8.380;2023-05-20T08:45:26;5.37;;;3.80;;
8665;SDS011;4370;48.916;8.380;2023-05-20T08:47:56;4.33;;;3.83;;
8665;SDS011;4370;48.916;8.380;2023-05-20T08:50:25;4.07;;;3.67;;
8665;SDS011;4370;48.916;8.380;2023-05-20T08:52:52;6.23;;;4.00;;
8665;SDS011;4370;48.916;8.380;2023-05-20T08:57:57;4.47;;;4.07;;
8665;SDS011;4370;48.916;8.380;2023-05-20T09:00:23;5.93;;;3.90;;
8665;SDS011;4370;48.916;8.380;2023-05-20T09:02:55;4.87;;;3.60;;
8665;SDS011;4370;48.916;8.380;2023-05-20T09:05:21;5.60;;;4.53;;
8665;SDS011;4370;48.916;8.380;2023-05-20T09:07:47;7.27;;;4.73;;
8665;SDS011;4370;48.916;8.380;2023-05-20T09:10:13;5.70;;;4.53;;
8665;SDS011;4370;48.916;8.380;2023-05-20T09:12:39;6.00;;;4.30;;
8665;SDS011;4370;48.916;8.380;2023-05-20T09:15:05;6.47;;;4.53;;
8665;SDS011;4370;48.916;8.380;2023-05-20T09:17:34;4.60;;;4.07;;
8665;SDS011;4370;48.916;8.380;2023-05-20T09:20:05;4.90;;;4.40;;
8665;SDS011;4370;48.916;8.380;2023-05-20T09:22:32;5.53;;;4.37;;
8665;SDS011;4370;48.916;8.380;2023-05-20T09:24:58;5.90;;;4.17;;
8665;SDS011;4370;48.916;8.380;2023-05-20T09:27:24;4.37;;;3.97;;
8665;SDS011;4370;48.916;8.380;2023-05-20T09:29:51;6.03;;;4.67;;
8665;SDS011;4370;48.916;8.380;2023-05-20T09:32:19;5.43;;;4.20;;
8665;SDS011;4370;48.916;8.380;2023-05-20T09:34:48;5.37;;;4.23;;
8665;SDS011;4370;48.916;8.380;2023-05-20T09:37:20;8.73;;;4.37;;
8665;SDS011;4370;48.916;8.380;2023-05-20T09:42:27;5.87;;;4.57;;
8665;SDS011;4370;48.916;8.380;2023-05-20T09:45:02;6.43;;;4.27;;
8665;SDS011;4370;48.916;8.380;2023-05-20T09:47:29;6.27;;;4.87;;
8665;SDS011;4370;48.916;8.380;2023-05-20T09:49:55;6.70;;;4.73;;
8665;SDS011;4370;48.916;8.380;2023-05-20T09:52:22;7.67;;;5.60;;
8665;SDS011;4370;48.916;8.380;2023-05-20T09:54:48;9.27;;;4.43;;
8665;SDS011;4370;48.916;8.380;2023-05-20T09:57:14;5.30;;;4.30;;
8665;SDS011;4370;48.916;8.380;2023-05-20T09:59:40;4.83;;;4.30;;
8665;SDS011;4370;48.916;8.380;2023-05-20T10:02:07;6.30;;;4.27;;
8665;SDS011;4370;48.916;8.380;2023-05-20T10:04:33;4.70;;;4.23;;
8665;SDS011;4370;48.916;8.380;2023-05-20T10:09:34;5.10;;;4.20;;
8665;SDS011;4370;48.916;8.380;2023-05-20T10:15:17;4.97;;;4.53;;
8665;SDS011;4370;48.916;8.380;2023-05-20T10:20:58;9.57;;;4.93;;
8665;SDS011;4370;48.916;8.380;2023-05-20T10:23:29;5.17;;;4.10;;
8665;SDS011;4370;48.916;8.380;2023-05-20T10:25:55;7.10;;;3.90;;
8665;SDS011;4370;48.916;8.380;2023-05-20T10:28:32;6.73;;;4.20;;
8665;SDS011;4370;48.916;8.380;2023-05-20T10:31:02;5.83;;;4.27;;
8665;SDS011;4370;48.916;8.380;2023-05-20T10:33:47;5.33;;;4.47;;
8665;SDS011;4370;48.916;8.380;2023-05-20T10:36:25;6.13;;;4.00;;
8665;SDS011;4370;48.916;8.380;2023-05-20T10:38:58;4.90;;;3.87;;
8665;SDS011;4370;48.916;8.380;2023-05-20T10:41:24;4.30;;;3.90;;
8665;SDS011;4370;48.916;8.380;2023-05-20T10:44:02;6.33;;;4.17;;
8665;SDS011;4370;48.916;8.380;2023-05-20T10:46:29;4.57;;;4.03;;
8665;SDS011;4370;48.916;8.380;2023-05-20T10:48:56;4.33;;;3.60;;
8665;SDS011;4370;48.916;8.380;2023-05-20T10:51:22;5.70;;;4.20;;
8665;SDS011;4370;48.916;8.380;2023-05-20T10:53:50;5.67;;;3.90;;
8665;SDS011;4370;48.916;8.380;2023-05-20T10:56:21;7.17;;;4.40;;
8665;SDS011;4370;48.916;8.380;2023-05-20T10:58:50;4.50;;;3.53;;
8665;SDS011;4370;48.916;8.380;2023-05-20T11:01:17;6.53;;;4.27;;
8665;SDS011;4370;48.916;8.380;2023-05-20T11:03:49;4.33;;;3.90;;
8665;SDS011;4370;48.916;8.380;2023-05-20T11:06:17;5.67;;;4.00;;
8665;SDS011;4370;48.916;8.380;2023-05-20T11:08:43;4.30;;;3.90;;
8665;SDS011;4370;48.916;8.380;2023-05-20T11:11:10;7.77;;;4.10;;
8665;SDS011;4370;48.916;8.380;2023-05-20T11:13:36;7.83;;;4.47;;
8665;SDS011;4370;48.916;8.380;2023-05-20T11:16:03;5.43;;;4.47;;
8665;SDS011;4370;48.916;8.380;2023-05-20T11:18:30;5.47;;;4.23;;
8665;SDS011;4370;48.916;8.380;2023-05-20T11:20:57;5.93;;;4.07;;
8665;SDS011;4370;48.916;8.380;2023-05-20T11:23:23;4.27;;;3.83;;
8665;SDS011;4370;48.916;8.380;2023-05-20T11:25:49;4.80;;;3.93;;
8665;SDS011;4370;48.916;8.380;2023-05-20T11:28:15;7.57;;;3.97;;
8665;SDS011;4370;48.916;8.380;2023-05-20T11:30:41;5.77;;;4.30;;
8665;SDS011;4370;48.916;8.380;2023-05-20T11:33:10;4.60;;;4.10;;
8665;SDS011;4370;48.916;8.380;2023-05-20T11:35:37;4.47;;;4.07;;
8665;SDS011;4370;48.916;8.380;2023-05-20T11:38:12;4.67;;;4.13;;
8665;SDS011;4370;48.916;8.380;2023-05-20T11:40:42;5.50;;;4.20;;
8665;SDS011;4370;48.916;8.380;2023-05-20T11:43:12;4.67;;;4.27;;
8665;SDS011;4370;48.916;8.380;2023-05-20T11:45:43;4.77;;;4.37;;
8665;SDS011;4370;48.916;8.380;2023-05-20T11:48:10;4.53;;;4.13;;
8665;SDS011;4370;48.916;8.380;2023-05-20T11:50:40;5.30;;;3.87;;
8665;SDS011;4370;48.916;8.380;2023-05-20T11:53:15;4.87;;;4.30;;
8665;SDS011;4370;48.916;8.380;2023-05-20T11:55:49;6.87;;;4.30;;
8665;SDS011;4370;48.916;8.380;2023-05-20T11:58:24;7.27;;;4.20;;
8665;SDS011;4370;48.916;8.380;2023-05-20T12:00:51;8.43;;;4.20;;
8665;SDS011;4370;48.916;8.380;2023-05-20T12:03:17;6.67;;;4.37;;
8665;SDS011;4370;48.916;8.380;2023-05-20T12:05:43;4.40;;;4.00;;
8665;SDS011;4370;48.916;8.380;2023-05-20T12:08:11;4.80;;;4.40;;
8665;SDS011;4370;48.916;8.380;2023-05-20T12:10:37;5.77;;;4.63;;
8665;SDS011;4370;48.916;8.380;2023-05-20T12:13:03;6.73;;;5.00;;
8665;SDS011;4370;48.916;8.380;2023-05-20T12:15:32;7.10;;;4.43;;
8665;SDS011;4370;48.916;8.380;2023-05-20T12:17:59;9.23;;;4.93;;
8665;SDS011;4370;48.916;8.380;2023-05-20T12:20:25;6.63;;;4.17;;
8665;SDS011;4370;48.916;8.380;2023-05-20T12:22:53;4.23;;;3.70;;
8665;SDS011;4370;48.916;8.380;2023-05-20T12:25:20;6.13;;;3.83;;
8665;SDS011;4370;48.916;8.380;2023-05-20T12:27:47;6.83;;;4.53;;
8665;SDS011;4370;48.916;8.380;2023-05-20T12:30:15;5.40;;;4.40;;
8665;SDS011;4370;48.916;8.380;2023-05-20T12:32:44;9.40;;;4.60;;
8665;SDS011;4370;48.916;8.380;2023-05-20T12:35:11;4.57;;;4.17;;
8665;SDS011;4370;48.916;8.380;2023-05-20T12:37:40;6.20;;;4.50;;
8665;SDS011;4370;48.916;8.380;2023-05-20T12:40:07;5.60;;;4.50;;
8665;SDS011;4370;48.916;8.380;2023-05-20T12:42:35;4.87;;;4.43;;
8665;SDS011;4370;48.916;8.380;2023-05-20T12:45:04;6.73;;;4.70;;
8665;SDS011;4370;48.916;8.380;2023-05-20T12:47:31;5.80;;;4.50;;
8665;SDS011;4370;48.916;8.380;2023-05-20T12:49:57;5.27;;;4.77;;
8665;SDS011;4370;48.916;8.380;2023-05-20T12:52:23;6.80;;;4.60;;
8665;SDS011;4370;48.916;8.380;2023-05-20T12:54:49;5.53;;;4.50;;
8665;SDS011;4370;48.916;8.380;2023-05-20T12:57:15;5.70;;;4.50;;
8665;SDS011;4370;48.916;8.380;2023-05-20T12:59:43;5.20;;;4.50;;
8665;SDS011;4370;48.916;8.380;2023-05-20T13:02:09;6.80;;;4.37;;
8665;SDS011;4370;48.916;8.380;2023-05-20T13:04:35;5.97;;;4.67;;
8665;SDS011;4370;48.916;8.380;2023-05-20T13:07:01;5.43;;;4.53;;
8665;SDS011;4370;48.916;8.380;2023-05-20T13:09:28;5.28;;;4.78;;
8665;SDS011;4370;48.916;8.380;2023-05-20T13:11:54;6.67;;;4.50;;
8665;SDS011;4370;48.916;8.380;2023-05-20T13:14:20;6.97;;;5.03;;
8665;SDS011;4370;48.916;8.380;2023-05-20T13:16:45;17.90;;;6.20;;
8665;SDS011;4370;48.916;8.380;2023-05-20T13:19:13;11.17;;;5.10;;
8665;SDS011;4370;48.916;8.380;2023-05-20T13:21:39;7.20;;;4.57;;
8665;SDS011;4370;48.916;8.380;2023-05-20T13:24:06;7.07;;;4.33;;
8665;SDS011;4370;48.916;8.380;2023-05-20T13:26:32;6.47;;;4.80;;
8665;SDS011;4370;48.916;8.380;2023-05-20T13:28:58;6.13;;;4.83;;
8665;SDS011;4370;48.916;8.380;2023-05-20T13:31:26;6.20;;;4.47;;
8665;SDS011;4370;48.916;8.380;2023-05-20T13:33:53;5.87;;;5.10;;
8665;SDS011;4370;48.916;8.380;2023-05-20T13:36:23;5.17;;;4.67;;
8665;SDS011;4370;48.916;8.380;2023-05-20T13:38:49;5.15;;;4.15;;
8665;SDS011;4370;48.916;8.380;2023-05-20T13:41:15;5.57;;;4.60;;
8665;SDS011;4370;48.916;8.380;2023-05-20T13:43:41;5.00;;;4.50;;
8665;SDS011;4370;48.916;8.380;2023-05-20T13:46:07;7.40;;;4.90;;
8665;SDS011;4370;48.916;8.380;2023-05-20T13:48:33;4.90;;;4.50;;
8665;SDS011;4370;48.916;8.380;2023-05-20T13:50:59;6.67;;;4.37;;
8665;SDS011;4370;48.916;8.380;2023-05-20T13:53:26;5.83;;;4.50;;
8665;SDS011;4370;48.916;8.380;2023-05-20T13:55:52;8.53;;;5.10;;
8665;SDS011;4370;48.916;8.380;2023-05-20T13:58:18;5.53;;;4.57;;
8665;SDS011;4370;48.916;8.380;2023-05-20T14:00:44;5.30;;;4.80;;
8665;SDS011;4370;48.916;8.380;2023-05-20T14:03:11;5.30;;;4.80;;
8665;SDS011;4370;48.916;8.380;2023-05-20T14:05:36;4.60;;;4.17;;
8665;SDS011;4370;48.916;8.380;2023-05-20T14:08:02;6.10;;;4.70;;
8665;SDS011;4370;48.916;8.380;2023-05-20T14:10:28;6.37;;;4.40;;
8665;SDS011;4370;48.916;8.380;2023-05-20T14:12:57;8.73;;;4.47;;
8665;SDS011;4370;48.916;8.380;2023-05-20T14:15:23;5.20;;;4.70;;
8665;SDS011;4370;48.916;8.380;2023-05-20T14:17:49;7.50;;;4.73;;
8665;SDS011;4370;48.916;8.380;2023-05-20T14:20:15;6.10;;;4.63;;
8665;SDS011;4370;48.916;8.380;2023-05-20T14:22:41;5.10;;;4.50;;
8665;SDS011;4370;48.916;8.380;2023-05-20T14:25:07;6.97;;;4.67;;
8665;SDS011;4370;48.916;8.380;2023-05-20T14:27:33;7.83;;;4.90;;
8665;SDS011;4370;48.916;8.380;2023-05-20T14:30:01;6.20;;;4.73;;
8665;SDS011;4370;48.916;8.380;2023-05-20T14:32:31;5.83;;;4.70;;
8665;SDS011;4370;48.916;8.380;2023-05-20T14:34:57;7.73;;;4.93;;
8665;SDS011;4370;48.916;8.380;2023-05-20T14:37:24;5.27;;;4.70;;
8665;SDS011;4370;48.916;8.380;2023-05-20T14:39:51;8.47;;;4.53;;
8665;SDS011;4370;48.916;8.380;2023-05-20T14:42:17;7.97;;;4.57;;
8665;SDS011;4370;48.916;8.380;2023-05-20T14:44:43;6.73;;;4.60;;
8665;SDS011;4370;48.916;8.380;2023-05-20T14:47:09;6.73;;;5.50;;
8665;SDS011;4370;48.916;8.380;2023-05-20T14:49:35;4.87;;;4.43;;
8665;SDS011;4370;48.916;8.380;2023-05-20T14:52:03;5.37;;;4.87;;
8665;SDS011;4370;48.916;8.380;2023-05-20T14:54:31;5.60;;;5.00;;
8665;SDS011;4370;48.916;8.380;2023-05-20T14:56:57;10.47;;;5.07;;
8665;SDS011;4370;48.916;8.380;2023-05-20T14:59:23;8.87;;;4.90;;
8665;SDS011;4370;48.916;8.380;2023-05-20T15:01:49;11.80;;;5.33;;
8665;SDS011;4370;48.916;8.380;2023-05-20T15:04:14;5.50;;;5.00;;
8665;SDS011;4370;48.916;8.380;2023-05-20T15:06:40;10.13;;;5.03;;
8665;SDS011;4370;48.916;8.380;2023-05-20T15:09:07;5.57;;;5.03;;
8665;SDS011;4370;48.916;8.380;2023-05-20T15:11:33;5.30;;;4.80;;
8665;SDS011;4370;48.916;8.380;2023-05-20T15:13:59;5.23;;;4.73;;
8665;SDS011;4370;48.916;8.380;2023-05-20T15:16:25;5.70;;;5.10;;
8665;SDS011;4370;48.916;8.380;2023-05-20T15:18:51;6.83;;;5.20;;
8665;SDS011;4370;48.916;8.380;2023-05-20T15:21:17;5.87;;;5.10;;
8665;SDS011;4370;48.916;8.380;2023-05-20T15:23:43;8.77;;;5.27;;
8665;SDS011;4370;48.916;8.380;2023-05-20T15:26:08;9.57;;;4.73;;
8665;SDS011;4370;48.916;8.380;2023-05-20T15:28:36;5.83;;;5.10;;